createdAt,value
2022-10-11T00:00:35.431Z,1018.37
2022-10-11T00:01:35.560Z,1018.34
2022-10-11T00:02:35.394Z,1018.40
2022-10-11T00:03:35.390Z,1018.39
2022-10-11T00:04:35.377Z,1018.44
2022-10-11T00:05:35.382Z,1018.41
2022-10-11T00:06:35.356Z,1018.44
2022-10-11T00:07:35.364Z,1018.44
2022-10-11T00:08:35.334Z,1018.43
2022-10-11T00:09:35.313Z,1018.46
2022-10-11T00:10:35.323Z,1018.49
2022-10-11T00:11:35.297Z,1018.48
2022-10-11T00:12:35.286Z,1018.45
2022-10-11T00:13:35.279Z,1018.50
2022-10-11T00:14:35.258Z,1018.50
2022-10-11T00:15:35.267Z,1018.47
2022-10-11T00:16:35.249Z,1018.48
2022-10-11T00:17:35.225Z,1018.49
2022-10-11T00:18:35.223Z,1018.49
2022-10-11T00:19:35.201Z,1018.49
2022-10-11T00:20:35.211Z,1018.49
2022-10-11T00:21:35.179Z,1018.52
2022-10-11T00:22:35.169Z,1018.50
2022-10-11T00:23:35.184Z,1018.53
2022-10-11T00:24:35.145Z,1018.52
2022-10-11T00:25:35.154Z,1018.55
2022-10-11T00:26:35.134Z,1018.49
2022-10-11T00:27:35.111Z,1018.52
2022-10-11T00:28:35.163Z,1018.56
2022-10-11T00:29:35.110Z,1018.59
2022-10-11T00:30:35.094Z,1018.57
2022-10-11T00:31:35.967Z,1018.61
2022-10-11T00:32:35.062Z,1018.58
2022-10-11T00:33:35.049Z,1018.59
2022-10-11T00:34:35.038Z,1018.59
2022-10-11T00:35:35.043Z,1018.60
2022-10-11T00:36:35.012Z,1018.60
2022-10-11T00:37:35.006Z,1018.58
2022-10-11T00:38:34.997Z,1018.57
2022-10-11T00:39:35.005Z,1018.58
2022-10-11T00:40:34.989Z,1018.57
2022-10-11T00:41:34.963Z,1018.61
2022-10-11T00:42:34.951Z,1018.61
2022-10-11T00:43:34.932Z,1018.57
2022-10-11T00:44:34.934Z,1018.59
2022-10-11T00:45:34.934Z,1018.57
2022-10-11T00:46:34.911Z,1018.57
2022-10-11T00:47:34.897Z,1018.53
2022-10-11T00:48:34.877Z,1018.57
2022-10-11T00:49:34.879Z,1018.60
2022-10-11T00:50:34.870Z,1018.57
2022-10-11T00:51:34.845Z,1018.54
2022-10-11T00:52:34.835Z,1018.58
2022-10-11T00:53:34.826Z,1018.58
2022-10-11T00:54:34.817Z,1018.55
2022-10-11T00:55:34.838Z,1018.56
2022-10-11T00:56:34.793Z,1018.59
2022-10-11T00:57:34.773Z,1018.56
2022-10-11T00:58:34.765Z,1018.54
2022-10-11T00:59:34.759Z,1018.57
2022-10-11T01:00:34.754Z,1018.60
2022-10-11T01:01:34.803Z,1018.62
2022-10-11T01:02:34.727Z,1018.61
2022-10-11T01:03:34.716Z,1018.55
2022-10-11T01:04:34.705Z,1018.54
2022-10-11T01:05:34.706Z,1018.53
2022-10-11T01:06:34.673Z,1018.61
2022-10-11T01:07:34.666Z,1018.63
2022-10-11T01:08:34.660Z,1018.64
2022-10-11T01:09:34.647Z,1018.65
2022-10-11T01:10:34.644Z,1018.63
2022-10-11T01:11:34.636Z,1018.62
2022-10-11T01:12:34.606Z,1018.69
2022-10-11T01:13:34.601Z,1018.70
2022-10-11T01:14:34.584Z,1018.70
2022-10-11T01:15:34.589Z,1018.71
2022-10-11T01:16:34.570Z,1018.72
2022-10-11T01:17:34.551Z,1018.76
2022-10-11T01:18:34.539Z,1018.73
2022-10-11T01:19:34.528Z,1018.69
2022-10-11T01:20:34.529Z,1018.71
2022-10-11T01:21:34.505Z,1018.67
2022-10-11T01:22:34.495Z,1018.70
2022-10-11T01:23:34.486Z,1018.71
2022-10-11T01:24:34.483Z,1018.73
2022-10-11T01:25:34.481Z,1018.72
2022-10-11T01:26:34.456Z,1018.74
2022-10-11T01:27:34.459Z,1018.74
2022-10-11T01:28:34.505Z,1018.70
2022-10-11T01:29:34.422Z,1018.73
2022-10-11T01:30:34.424Z,1018.75
2022-10-11T01:31:34.399Z,1018.74
2022-10-11T01:32:34.391Z,1018.79
2022-10-11T01:33:34.376Z,1018.75
2022-10-11T01:34:34.371Z,1018.72
2022-10-11T01:35:34.362Z,1018.70
2022-10-11T01:36:34.343Z,1018.70
2022-10-11T01:37:34.338Z,1018.72
2022-10-11T01:38:34.339Z,1018.70
2022-10-11T01:39:34.302Z,1018.77
2022-10-11T01:40:34.308Z,1018.76
2022-10-11T01:41:34.283Z,1018.77
2022-10-11T01:42:34.280Z,1018.78
2022-10-11T01:43:34.279Z,1018.79
2022-10-11T01:44:34.253Z,1018.77
2022-10-11T01:45:34.251Z,1018.77
2022-10-11T01:46:34.235Z,1018.78
2022-10-11T01:47:34.212Z,1018.80
2022-10-11T01:48:34.208Z,1018.84
2022-10-11T01:49:34.197Z,1018.84
2022-10-11T01:50:34.198Z,1018.82
2022-10-11T01:51:34.166Z,1018.87
2022-10-11T01:52:34.165Z,1018.89
2022-10-11T01:53:34.155Z,1018.86
2022-10-11T01:54:56.480Z,1018.83
2022-10-11T01:55:35.140Z,1018.86
2022-10-11T01:56:34.112Z,1018.89
2022-10-11T01:57:34.099Z,1018.87
2022-10-11T01:58:34.097Z,1018.89
2022-10-11T01:59:34.096Z,1018.90
2022-10-11T02:00:34.085Z,1018.92
2022-10-11T02:01:34.137Z,1018.91
2022-10-11T02:02:34.052Z,1018.90
2022-10-11T02:03:34.031Z,1018.94
2022-10-11T02:04:34.029Z,1018.89
2022-10-11T02:05:34.033Z,1018.94
2022-10-11T02:06:33.999Z,1018.90
2022-10-11T02:07:33.994Z,1018.89
2022-10-11T02:08:33.982Z,1018.90
2022-10-11T02:09:33.971Z,1018.89
2022-10-11T02:10:33.978Z,1018.89
2022-10-11T02:11:33.955Z,1018.91
2022-10-11T02:12:33.939Z,1018.92
2022-10-11T02:13:33.926Z,1018.93
2022-10-11T02:14:33.910Z,1018.92
2022-10-11T02:15:33.945Z,1018.93
2022-10-11T02:16:33.893Z,1018.90
2022-10-11T02:17:33.878Z,1018.89
2022-10-11T02:18:33.869Z,1018.87
2022-10-11T02:19:33.852Z,1018.85
2022-10-11T02:20:33.859Z,1018.86
2022-10-11T02:21:33.838Z,1018.85
2022-10-11T02:22:33.820Z,1018.84
2022-10-11T02:23:33.808Z,1018.85
2022-10-11T02:24:33.816Z,1018.86
2022-10-11T02:25:33.793Z,1018.84
2022-10-11T02:26:33.773Z,1018.90
2022-10-11T02:27:33.763Z,1018.87
2022-10-11T02:28:33.839Z,1018.96
2022-10-11T02:29:33.759Z,1018.96
2022-10-11T02:30:33.728Z,1018.90
2022-10-11T02:31:33.747Z,1018.91
2022-10-11T02:32:33.705Z,1018.95
2022-10-11T02:33:33.703Z,1018.95
2022-10-11T02:34:33.702Z,1018.97
2022-10-11T02:35:33.680Z,1018.95
2022-10-11T02:36:33.662Z,1018.98
2022-10-11T02:37:33.656Z,1018.99
2022-10-11T02:38:33.641Z,1018.97
2022-10-11T02:39:33.628Z,1018.99
2022-10-11T02:40:33.637Z,1019.00
2022-10-11T02:41:33.607Z,1019.00
2022-10-11T02:42:33.600Z,1019.02
2022-10-11T02:43:33.590Z,1019.01
2022-10-11T02:44:33.570Z,1019.03
2022-10-11T02:45:33.586Z,1019.04
2022-10-11T02:46:33.556Z,1019.02
2022-10-11T02:47:33.561Z,1019.03
2022-10-11T02:48:33.533Z,1019.04
2022-10-11T02:49:33.524Z,1019.03
2022-10-11T02:50:33.517Z,1019.04
2022-10-11T02:51:33.492Z,1019.06
2022-10-11T02:52:33.486Z,1019.09
2022-10-11T02:53:33.484Z,1019.06
2022-10-11T02:54:33.462Z,1019.06
2022-10-11T02:55:33.465Z,1019.07
2022-10-11T02:56:33.437Z,1019.05
2022-10-11T02:57:33.426Z,1019.08
2022-10-11T02:58:33.433Z,1019.07
2022-10-11T02:59:33.415Z,1019.10
2022-10-11T03:00:33.416Z,1019.11
2022-10-11T03:01:33.465Z,1019.08
2022-10-11T03:02:33.377Z,1019.08
2022-10-11T03:03:33.377Z,1019.14
2022-10-11T03:04:33.353Z,1019.11
2022-10-11T03:05:33.355Z,1019.17
2022-10-11T03:06:33.330Z,1019.14
2022-10-11T03:07:33.322Z,1019.13
2022-10-11T03:08:33.314Z,1019.17
2022-10-11T03:09:33.290Z,1019.15
2022-10-11T03:10:33.298Z,1019.18
2022-10-11T03:11:33.267Z,1019.22
2022-10-11T03:12:33.254Z,1019.19
2022-10-11T03:13:33.249Z,1019.20
2022-10-11T03:14:33.239Z,1019.17
2022-10-11T03:15:33.234Z,1019.18
2022-10-11T03:16:33.219Z,1019.18
2022-10-11T03:17:37.274Z,1019.17
2022-10-11T03:18:33.193Z,1019.18
2022-10-11T03:19:33.208Z,1019.20
2022-10-11T03:20:33.180Z,1019.20
2022-10-11T03:21:33.153Z,1019.20
2022-10-11T03:22:33.148Z,1019.18
2022-10-11T03:23:33.142Z,1019.25
2022-10-11T03:24:33.129Z,1019.21
2022-10-11T03:25:33.123Z,1019.19
2022-10-11T03:26:33.096Z,1019.20
2022-10-11T03:27:33.093Z,1019.26
2022-10-11T03:28:33.179Z,1019.22
2022-10-11T03:29:33.071Z,1019.25
2022-10-11T03:30:33.072Z,1019.24
2022-10-11T03:31:33.047Z,1019.26
2022-10-11T03:32:33.035Z,1019.29
2022-10-11T03:33:33.024Z,1019.30
2022-10-11T03:34:33.014Z,1019.32
2022-10-11T03:35:33.038Z,1019.34
2022-10-11T03:36:32.984Z,1019.34
2022-10-11T03:37:32.972Z,1019.38
2022-10-11T03:38:32.992Z,1019.39
2022-10-11T03:39:32.959Z,1019.41
2022-10-11T03:40:32.959Z,1019.43
2022-10-11T03:41:32.930Z,1019.41
2022-10-11T03:42:32.930Z,1019.44
2022-10-11T03:43:32.905Z,1019.43
2022-10-11T03:44:32.899Z,1019.42
2022-10-11T03:45:32.899Z,1019.42
2022-10-11T03:46:32.882Z,1019.43
2022-10-11T03:47:32.864Z,1019.44
2022-10-11T03:48:32.851Z,1019.45
2022-10-11T03:49:32.845Z,1019.44
2022-10-11T03:50:32.843Z,1019.52
2022-10-11T03:51:32.836Z,1019.51
2022-10-11T03:52:32.810Z,1019.53
2022-10-11T03:53:32.801Z,1019.53
2022-10-11T03:54:32.785Z,1019.51
2022-10-11T03:55:32.784Z,1019.52
2022-10-11T03:56:32.758Z,1019.52
2022-10-11T03:57:32.758Z,1019.51
2022-10-11T03:58:32.736Z,1019.50
2022-10-11T03:59:32.733Z,1019.51
2022-10-11T04:00:32.728Z,1019.52
2022-10-11T04:01:32.797Z,1019.52
2022-10-11T04:02:36.994Z,1019.52
2022-10-11T04:03:33.676Z,1019.56
2022-10-11T04:04:32.672Z,1019.58
2022-10-11T04:05:32.669Z,1019.58
2022-10-11T04:06:32.643Z,1019.62
2022-10-11T04:07:32.664Z,1019.62
2022-10-11T04:08:32.632Z,1019.63
2022-10-11T04:09:32.614Z,1019.61
2022-10-11T04:10:32.619Z,1019.61
2022-10-11T04:11:32.590Z,1019.59
2022-10-11T04:12:32.587Z,1019.59
2022-10-11T04:13:32.578Z,1019.57
2022-10-11T04:14:32.561Z,1019.57
2022-10-11T04:15:32.556Z,1019.55
2022-10-11T04:16:32.541Z,1019.63
2022-10-11T04:17:32.529Z,1019.64
2022-10-11T04:18:32.509Z,1019.63
2022-10-11T04:19:32.507Z,1019.63
2022-10-11T04:20:32.512Z,1019.64
2022-10-11T04:21:32.497Z,1019.64
2022-10-11T04:22:32.470Z,1019.70
2022-10-11T04:23:32.475Z,1019.68
2022-10-11T04:24:32.446Z,1019.71
2022-10-11T04:25:32.447Z,1019.69
2022-10-11T04:26:32.437Z,1019.69
2022-10-11T04:27:32.422Z,1019.73
2022-10-11T04:28:32.490Z,1019.73
2022-10-11T04:29:32.986Z,1019.73
2022-10-11T04:30:32.373Z,1019.71
2022-10-11T04:31:32.394Z,1019.75
2022-10-11T04:32:32.364Z,1019.73
2022-10-11T04:33:32.341Z,1019.75
2022-10-11T04:34:32.348Z,1019.78
2022-10-11T04:35:32.326Z,1019.77
2022-10-11T04:36:32.327Z,1019.82
2022-10-11T04:37:32.304Z,1019.82
2022-10-11T04:38:32.297Z,1019.81
2022-10-11T04:39:32.302Z,1019.81
2022-10-11T04:40:32.267Z,1019.79
2022-10-11T04:41:32.262Z,1019.83
2022-10-11T04:42:32.247Z,1019.84
2022-10-11T04:43:32.229Z,1019.82
2022-10-11T04:44:32.222Z,1019.84
2022-10-11T04:45:32.220Z,1019.82
2022-10-11T04:46:32.215Z,1019.84
2022-10-11T04:47:32.191Z,1019.85
2022-10-11T04:48:32.178Z,1019.83
2022-10-11T04:49:32.173Z,1019.84
2022-10-11T04:50:32.158Z,1019.83
2022-10-11T04:51:32.174Z,1019.84
2022-10-11T04:52:32.135Z,1019.85
2022-10-11T04:53:32.116Z,1019.87
2022-10-11T04:54:32.105Z,1019.91
2022-10-11T04:55:32.115Z,1019.87
2022-10-11T04:56:32.081Z,1019.93
2022-10-11T04:57:32.086Z,1019.93
2022-10-11T04:58:32.066Z,1019.92
2022-10-11T04:59:32.058Z,1019.94
2022-10-11T05:00:32.038Z,1019.98
2022-10-11T05:01:32.038Z,1019.97
2022-10-11T05:02:32.108Z,1019.95
2022-10-11T05:03:32.013Z,1019.95
2022-10-11T05:04:31.995Z,1019.94
2022-10-11T05:05:31.981Z,1019.94
2022-10-11T05:06:31.969Z,1019.95
2022-10-11T05:07:31.974Z,1020.01
2022-10-11T05:08:31.946Z,1020.01
2022-10-11T05:09:31.936Z,1020.01
2022-10-11T05:10:31.924Z,1020.02
2022-10-11T05:11:31.933Z,1020.00
2022-10-11T05:12:31.920Z,1020.06
2022-10-11T05:13:31.892Z,1020.07
2022-10-11T05:14:31.886Z,1020.07
2022-10-11T05:15:31.870Z,1020.08
2022-10-11T05:16:31.860Z,1020.08
2022-10-11T05:17:31.851Z,1020.08
2022-10-11T05:18:31.861Z,1020.14
2022-10-11T05:19:31.834Z,1020.12
2022-10-11T05:20:31.820Z,1020.13
2022-10-11T05:21:31.812Z,1020.17
2022-10-11T05:22:31.790Z,1020.18
2022-10-11T05:23:31.824Z,1020.18
2022-10-11T05:24:31.767Z,1020.20
2022-10-11T05:25:31.769Z,1020.20
2022-10-11T05:26:31.751Z,1020.21
2022-10-11T05:27:31.756Z,1020.18
2022-10-11T05:28:31.780Z,1020.24
2022-10-11T05:29:31.731Z,1020.23
2022-10-11T05:30:31.699Z,1020.23
2022-10-11T05:31:31.699Z,1020.23
2022-10-11T05:32:31.682Z,1020.23
2022-10-11T05:33:31.673Z,1020.24
2022-10-11T05:34:31.676Z,1020.28
2022-10-11T05:35:31.656Z,1020.30
2022-10-11T05:36:31.637Z,1020.28
2022-10-11T05:37:31.630Z,1020.29
2022-10-11T05:38:31.609Z,1020.29
2022-10-11T05:39:31.616Z,1020.29
2022-10-11T05:40:31.589Z,1020.30
2022-10-11T05:41:31.584Z,1020.30
2022-10-11T05:42:31.571Z,1020.32
2022-10-11T05:43:31.574Z,1020.33
2022-10-11T05:44:31.559Z,1020.29
2022-10-11T05:45:31.536Z,1020.28
2022-10-11T05:46:31.522Z,1020.33
2022-10-11T05:47:31.507Z,1020.31
2022-10-11T05:48:31.503Z,1020.35
2022-10-11T05:49:31.503Z,1020.34
2022-10-11T05:50:31.475Z,1020.34
2022-10-11T05:51:31.462Z,1020.36
2022-10-11T05:52:31.451Z,1020.36
2022-10-11T05:53:31.447Z,1020.35
2022-10-11T05:54:31.444Z,1020.34
2022-10-11T05:55:31.419Z,1020.34
2022-10-11T05:56:31.416Z,1020.33
2022-10-11T05:57:31.406Z,1020.36
2022-10-11T05:58:31.404Z,1020.38
2022-10-11T05:59:31.416Z,1020.40
2022-10-11T06:00:31.369Z,1020.41
2022-10-11T06:01:31.365Z,1020.44
2022-10-11T06:02:31.339Z,1020.42
2022-10-11T06:03:31.341Z,1020.46
2022-10-11T06:04:31.973Z,1020.47
2022-10-11T06:05:31.323Z,1020.48
2022-10-11T06:06:31.301Z,1020.49
2022-10-11T06:07:31.294Z,1020.51
2022-10-11T06:08:31.271Z,1020.52
2022-10-11T06:09:31.268Z,1020.53
2022-10-11T06:10:31.355Z,1020.56
2022-10-11T06:11:31.245Z,1020.57
2022-10-11T06:12:31.233Z,1020.53
2022-10-11T06:13:31.222Z,1020.56
2022-10-11T06:14:31.210Z,1020.58
2022-10-11T06:15:31.229Z,1020.61
2022-10-11T06:16:31.216Z,1020.62
2022-10-11T06:17:31.173Z,1020.63
2022-10-11T06:18:31.159Z,1020.62
2022-10-11T06:19:31.149Z,1020.66
2022-10-11T06:20:31.159Z,1020.63
2022-10-11T06:21:31.137Z,1020.67
2022-10-11T06:22:31.114Z,1020.65
2022-10-11T06:23:31.102Z,1020.64
2022-10-11T06:24:31.091Z,1020.69
2022-10-11T06:25:31.098Z,1020.69
2022-10-11T06:26:31.071Z,1020.68
2022-10-11T06:27:31.060Z,1020.73
2022-10-11T06:28:31.116Z,1020.69
2022-10-11T06:29:31.034Z,1020.73
2022-10-11T06:30:31.038Z,1020.71
2022-10-11T06:31:31.061Z,1020.72
2022-10-11T06:32:31.001Z,1020.74
2022-10-11T06:33:30.998Z,1020.75
2022-10-11T06:34:30.990Z,1020.76
2022-10-11T06:35:30.990Z,1020.79
2022-10-11T06:36:30.971Z,1020.83
2022-10-11T06:37:30.956Z,1020.80
2022-10-11T06:38:30.947Z,1020.86
2022-10-11T06:39:30.944Z,1020.85
2022-10-11T06:40:30.926Z,1020.85
2022-10-11T06:41:30.951Z,1020.94
2022-10-11T06:42:30.890Z,1020.91
2022-10-11T06:43:30.877Z,1020.90
2022-10-11T06:44:30.867Z,1020.90
2022-10-11T06:45:30.887Z,1020.93
2022-10-11T06:46:30.872Z,1020.97
2022-10-11T06:47:30.887Z,1020.92
2022-10-11T06:48:30.822Z,1020.95
2022-10-11T06:49:30.810Z,1020.94
2022-10-11T06:50:57.886Z,1020.97
2022-10-11T06:51:31.794Z,1020.97
2022-10-11T06:52:30.787Z,1020.96
2022-10-11T06:53:30.764Z,1020.96
2022-10-11T06:54:30.757Z,1020.98
2022-10-11T06:55:30.782Z,1021.00
2022-10-11T06:56:30.739Z,1021.00
2022-10-11T06:57:30.734Z,1021.03
2022-10-11T06:58:30.715Z,1021.00
2022-10-11T06:59:30.708Z,1021.04
2022-10-11T07:00:30.730Z,1021.04
2022-10-11T07:01:30.716Z,1021.06
2022-10-11T07:02:30.672Z,1021.07
2022-10-11T07:03:30.682Z,1021.08
2022-10-11T07:04:30.649Z,1021.12
2022-10-11T07:05:30.630Z,1021.11
2022-10-11T07:06:30.640Z,1021.11
2022-10-11T07:07:30.606Z,1021.18
2022-10-11T07:08:30.631Z,1021.19
2022-10-11T07:09:30.591Z,1021.18
2022-10-11T07:10:30.577Z,1021.20
2022-10-11T07:11:30.582Z,1021.22
2022-10-11T07:12:30.553Z,1021.22
2022-10-11T07:13:30.539Z,1021.29
2022-10-11T07:14:30.529Z,1021.27
2022-10-11T07:15:30.522Z,1021.29
2022-10-11T07:16:30.530Z,1021.27
2022-10-11T07:17:30.506Z,1021.26
2022-10-11T07:18:30.483Z,1021.28
2022-10-11T07:19:30.501Z,1021.33
2022-10-11T07:20:30.467Z,1021.32
2022-10-11T07:21:30.624Z,1021.32
2022-10-11T07:22:30.439Z,1021.33
2022-10-11T07:23:30.458Z,1021.34
2022-10-11T07:24:30.420Z,1021.40
2022-10-11T07:25:30.410Z,1021.40
2022-10-11T07:26:35.235Z,1021.37
2022-10-11T07:27:31.434Z,1021.40
2022-10-11T07:28:30.541Z,1021.40
2022-10-11T07:29:30.376Z,1021.36
2022-10-11T07:30:30.355Z,1021.41
2022-10-11T07:31:30.376Z,1021.43
2022-10-11T07:32:30.350Z,1021.45
2022-10-11T07:33:30.316Z,1021.46
2022-10-11T07:34:30.312Z,1021.47
2022-10-11T07:35:30.317Z,1021.50
2022-10-11T07:36:30.305Z,1021.48
2022-10-11T07:37:30.275Z,1021.50
2022-10-11T07:38:30.267Z,1021.52
2022-10-11T07:39:30.260Z,1021.48
2022-10-11T07:40:30.237Z,1021.47
2022-10-11T07:41:30.243Z,1021.50
2022-10-11T07:42:30.215Z,1021.48
2022-10-11T07:43:30.202Z,1021.50
2022-10-11T07:44:30.207Z,1021.50
2022-10-11T07:45:30.188Z,1021.48
2022-10-11T07:46:30.194Z,1021.47
2022-10-11T07:47:30.163Z,1021.48
2022-10-11T07:48:30.156Z,1021.44
2022-10-11T07:49:30.144Z,1021.49
2022-10-11T07:50:30.132Z,1021.47
2022-10-11T07:51:30.144Z,1021.49
2022-10-11T07:52:30.119Z,1021.51
2022-10-11T07:53:30.090Z,1021.49
2022-10-11T07:54:30.089Z,1021.51
2022-10-11T07:55:30.078Z,1021.50
2022-10-11T07:56:30.057Z,1021.48
2022-10-11T07:57:30.063Z,1021.50
2022-10-11T07:58:30.042Z,1021.48
2022-10-11T07:59:30.022Z,1021.50
2022-10-11T08:00:30.020Z,1021.52
2022-10-11T08:01:30.158Z,1021.52
2022-10-11T08:02:30.012Z,1021.55
2022-10-11T08:03:29.979Z,1021.57
2022-10-11T08:04:29.974Z,1021.58
2022-10-11T08:05:29.954Z,1021.57
2022-10-11T08:06:29.945Z,1021.64
2022-10-11T08:07:29.979Z,1021.64
2022-10-11T08:08:29.941Z,1021.65
2022-10-11T08:09:29.912Z,1021.65
2022-10-11T08:10:29.898Z,1021.63
2022-10-11T08:11:29.887Z,1021.67
2022-10-11T08:12:29.888Z,1021.68
2022-10-11T08:13:29.871Z,1021.66
2022-10-11T08:14:29.855Z,1021.69
2022-10-11T08:15:29.848Z,1021.71
2022-10-11T08:16:29.838Z,1021.72
2022-10-11T08:17:29.840Z,1021.75
2022-10-11T08:18:29.810Z,1021.77
2022-10-11T08:19:29.816Z,1021.77
2022-10-11T08:20:29.798Z,1021.78
2022-10-11T08:21:29.775Z,1021.75
2022-10-11T08:22:29.796Z,1021.79
2022-10-11T08:23:29.770Z,1021.79
2022-10-11T08:24:31.062Z,1021.80
2022-10-11T08:25:29.736Z,1021.78
2022-10-11T08:26:29.716Z,1021.78
2022-10-11T08:27:29.725Z,1021.77
2022-10-11T08:28:29.758Z,1021.79
2022-10-11T08:29:29.689Z,1021.78
2022-10-11T08:30:29.696Z,1021.81
2022-10-11T08:31:29.659Z,1021.80
2022-10-11T08:32:29.670Z,1021.80
2022-10-11T08:33:29.639Z,1021.77
2022-10-11T08:34:29.631Z,1021.79
2022-10-11T08:35:29.616Z,1021.77
2022-10-11T08:36:29.609Z,1021.77
2022-10-11T08:37:29.622Z,1021.76
2022-10-11T08:38:29.599Z,1021.77
2022-10-11T08:39:29.593Z,1021.76
2022-10-11T08:40:34.375Z,1021.76
2022-10-11T08:41:30.570Z,1021.79
2022-10-11T08:42:29.557Z,1021.76
2022-10-11T08:43:29.533Z,1021.82
2022-10-11T08:44:37.435Z,1021.81
2022-10-11T08:45:30.512Z,1021.78
2022-10-11T08:46:29.492Z,1021.76
2022-10-11T08:47:29.488Z,1021.82
2022-10-11T08:48:29.493Z,1021.79
2022-10-11T08:49:29.465Z,1021.79
2022-10-11T08:50:29.458Z,1021.80
2022-10-11T08:51:29.447Z,1021.76
2022-10-11T08:52:29.423Z,1021.73
2022-10-11T08:53:29.432Z,1021.75
2022-10-11T08:54:29.408Z,1021.70
2022-10-11T08:55:29.421Z,1021.68
2022-10-11T08:56:29.379Z,1021.68
2022-10-11T08:57:29.365Z,1021.68
2022-10-11T08:58:29.365Z,1021.69
2022-10-11T08:59:29.357Z,1021.71
2022-10-11T09:00:29.332Z,1021.73
2022-10-11T09:01:29.412Z,1021.70
2022-10-11T09:02:43.645Z,1021.74
2022-10-11T09:03:30.315Z,1021.71
2022-10-11T09:04:29.288Z,1021.75
2022-10-11T09:05:29.282Z,1021.71
2022-10-11T09:06:29.307Z,1021.78
2022-10-11T09:07:29.256Z,1021.80
2022-10-11T09:08:29.273Z,1021.80
2022-10-11T09:09:29.230Z,1021.81
2022-10-11T09:10:29.234Z,1021.79
2022-10-11T09:11:29.236Z,1021.76
2022-10-11T09:12:32.818Z,1021.77
2022-10-11T09:13:30.224Z,1021.76
2022-10-11T09:14:29.211Z,1021.77
2022-10-11T09:15:29.173Z,1021.77
2022-10-11T09:16:29.159Z,1021.78
2022-10-11T09:17:29.141Z,1021.75
2022-10-11T09:18:29.132Z,1021.74
2022-10-11T09:19:29.139Z,1021.76
2022-10-11T09:20:29.125Z,1021.74
2022-10-11T09:21:29.103Z,1021.73
2022-10-11T09:22:30.798Z,1021.73
2022-10-11T09:23:29.079Z,1021.74
2022-10-11T09:24:29.085Z,1021.71
2022-10-11T09:25:29.075Z,1021.70
2022-10-11T09:26:29.059Z,1021.71
2022-10-11T09:27:50.222Z,1021.72
2022-10-11T09:28:30.091Z,1021.74
2022-10-11T09:29:29.023Z,1021.75
2022-10-11T09:30:29.108Z,1021.76
2022-10-11T09:31:28.991Z,1021.76
2022-10-11T09:32:28.981Z,1021.74
2022-10-11T09:33:28.967Z,1021.77
2022-10-11T09:34:28.968Z,1021.78
2022-10-11T09:35:28.939Z,1021.72
2022-10-11T09:36:28.927Z,1021.74
2022-10-11T09:37:28.922Z,1021.75
2022-10-11T09:38:28.914Z,1021.71
2022-10-11T09:39:28.926Z,1021.79
2022-10-11T09:40:28.890Z,1021.77
2022-10-11T09:41:28.869Z,1021.71
2022-10-11T09:42:28.869Z,1021.71
2022-10-11T09:43:28.869Z,1021.71
2022-10-11T09:44:28.848Z,1021.76
2022-10-11T09:45:28.831Z,1021.73
2022-10-11T09:46:28.823Z,1021.65
2022-10-11T09:47:28.819Z,1021.73
2022-10-11T09:48:28.794Z,1021.74
2022-10-11T09:49:28.802Z,1021.72
2022-10-11T09:50:28.770Z,1021.75
2022-10-11T09:51:28.759Z,1021.73
2022-10-11T09:52:28.749Z,1021.74
2022-10-11T09:53:28.749Z,1021.76
2022-10-11T09:54:28.753Z,1021.78
2022-10-11T09:55:28.722Z,1021.79
2022-10-11T09:56:28.715Z,1021.84
2022-10-11T09:57:28.697Z,1021.86
2022-10-11T09:58:28.682Z,1021.83
2022-10-11T09:59:28.783Z,1021.87
2022-10-11T10:00:28.657Z,1021.89
2022-10-11T10:01:28.704Z,1021.86
2022-10-11T10:02:28.643Z,1021.88
2022-10-11T10:03:28.629Z,1021.91
2022-10-11T10:04:28.658Z,1021.92
2022-10-11T10:05:28.600Z,1021.95
2022-10-11T10:06:28.596Z,1021.94
2022-10-11T10:07:28.586Z,1021.91
2022-10-11T10:08:28.578Z,1021.90
2022-10-11T10:09:28.566Z,1021.90
2022-10-11T10:10:28.567Z,1021.91
2022-10-11T10:11:28.534Z,1021.91
2022-10-11T10:12:28.544Z,1021.93
2022-10-11T10:13:28.519Z,1021.90
2022-10-11T10:14:28.508Z,1021.88
2022-10-11T10:15:28.532Z,1021.91
2022-10-11T10:16:28.478Z,1021.88
2022-10-11T10:17:28.474Z,1021.89
2022-10-11T10:18:28.475Z,1021.81
2022-10-11T10:19:28.443Z,1021.83
2022-10-11T10:20:28.524Z,1021.78
2022-10-11T10:21:28.420Z,1021.82
2022-10-11T10:22:28.415Z,1021.81
2022-10-11T10:23:28.406Z,1021.80
2022-10-11T10:24:28.395Z,1021.79
2022-10-11T10:25:28.532Z,1021.80
2022-10-11T10:26:28.372Z,1021.78
2022-10-11T10:27:28.353Z,1021.78
2022-10-11T10:28:28.385Z,1021.81
2022-10-11T10:29:28.334Z,1021.83
2022-10-11T10:30:33.084Z,1021.83
2022-10-11T10:31:29.336Z,1021.81
2022-10-11T10:32:28.324Z,1021.81
2022-10-11T10:33:28.292Z,1021.75
2022-10-11T10:34:28.283Z,1021.76
2022-10-11T10:35:28.263Z,1021.74
2022-10-11T10:36:28.283Z,1021.77
2022-10-11T10:37:28.250Z,1021.68
2022-10-11T10:38:28.260Z,1021.69
2022-10-11T10:39:28.220Z,1021.71
2022-10-11T10:40:28.216Z,1021.69
2022-10-11T10:41:28.211Z,1021.70
2022-10-11T10:42:28.187Z,1021.71
2022-10-11T10:43:28.178Z,1021.72
2022-10-11T10:44:28.176Z,1021.63
2022-10-11T10:45:28.155Z,1021.64
2022-10-11T10:46:28.166Z,1021.69
2022-10-11T10:47:28.154Z,1021.68
2022-10-11T10:48:28.120Z,1021.68
2022-10-11T10:49:52.554Z,1021.67
2022-10-11T10:50:29.095Z,1021.62
2022-10-11T10:51:28.101Z,1021.63
2022-10-11T10:52:28.081Z,1021.62
2022-10-11T10:53:28.062Z,1021.60
2022-10-11T10:54:28.552Z,1021.61
2022-10-11T10:55:28.046Z,1021.59
2022-10-11T10:56:28.051Z,1021.60
2022-10-11T10:57:28.028Z,1021.60
2022-10-11T10:58:28.012Z,1021.59
2022-10-11T10:59:27.996Z,1021.61
2022-10-11T11:00:27.982Z,1021.57
2022-10-11T11:01:28.092Z,1021.58
2022-10-11T11:02:40.298Z,1021.57
2022-10-11T11:03:28.982Z,1021.52
2022-10-11T11:04:27.941Z,1021.48
2022-10-11T11:05:27.943Z,1021.49
2022-10-11T11:06:28.994Z,1021.52
2022-10-11T11:07:27.943Z,1021.49
2022-10-11T11:08:27.902Z,1021.51
2022-10-11T11:09:27.892Z,1021.51
2022-10-11T11:10:27.881Z,1021.47
2022-10-11T11:11:27.867Z,1021.51
2022-10-11T11:12:27.869Z,1021.45
2022-10-11T11:13:27.850Z,1021.48
2022-10-11T11:14:27.827Z,1021.48
2022-10-11T11:15:32.569Z,1021.50
2022-10-11T11:16:28.807Z,1021.45
2022-10-11T11:17:27.823Z,1021.49
2022-10-11T11:18:27.782Z,1021.53
2022-10-11T11:19:27.821Z,1021.48
2022-10-11T11:20:27.767Z,1021.48
2022-10-11T11:21:27.761Z,1021.49
2022-10-11T11:22:32.490Z,1021.52
2022-10-11T11:23:28.745Z,1021.48
2022-10-11T11:24:27.721Z,1021.43
2022-10-11T11:25:27.717Z,1021.46
2022-10-11T11:26:27.697Z,1021.50
2022-10-11T11:27:27.690Z,1021.47
2022-10-11T11:28:27.758Z,1021.45
2022-10-11T11:29:27.667Z,1021.41
2022-10-11T11:30:27.649Z,1021.45
2022-10-11T11:31:27.648Z,1021.40
2022-10-11T11:32:27.631Z,1021.42
2022-10-11T11:33:27.615Z,1021.43
2022-10-11T11:34:27.625Z,1021.40
2022-10-11T11:35:27.611Z,1021.41
2022-10-11T11:36:27.590Z,1021.45
2022-10-11T11:37:27.574Z,1021.40
2022-10-11T11:38:29.750Z,1021.42
2022-10-11T11:39:27.567Z,1021.33
2022-10-11T11:40:27.547Z,1021.33
2022-10-11T11:41:27.525Z,1021.31
2022-10-11T11:42:27.534Z,1021.30
2022-10-11T11:43:27.514Z,1021.32
2022-10-11T11:44:27.834Z,1021.29
2022-10-11T11:45:27.485Z,1021.26
2022-10-11T11:46:27.472Z,1021.27
2022-10-11T11:47:27.466Z,1021.25
2022-10-11T11:48:27.456Z,1021.22
2022-10-11T11:49:27.453Z,1021.25
2022-10-11T11:50:29.493Z,1021.23
2022-10-11T11:51:30.469Z,1021.29
2022-10-11T11:52:27.411Z,1021.26
2022-10-11T11:53:27.407Z,1021.26
2022-10-11T11:54:27.401Z,1021.19
2022-10-11T11:55:27.372Z,1021.15
2022-10-11T11:56:27.367Z,1021.15
2022-10-11T11:57:27.356Z,1021.21
2022-10-11T11:58:27.344Z,1021.15
2022-10-11T11:59:27.368Z,1021.21
2022-10-11T12:00:27.323Z,1021.18
2022-10-11T12:01:31.158Z,1021.12
2022-10-11T12:02:27.378Z,1021.12
2022-10-11T12:03:27.292Z,1021.12
2022-10-11T12:04:27.290Z,1021.10
2022-10-11T12:05:27.271Z,1021.09